Thomson Majesty — 9HA2188 — position and weather

sailwx.info

Track history (hours):
 
Tides and Currents Weather Stations Pressure Air Temp Water Temp Dewpoint Dewpoint Depression Visibility Wind Speed Wind Dir Waves Ship Positions

Thomson Majesty

Last reported at 2015-May-23 00:33 UTC. Time now 2015-May-24 21:05 UTC.
Position N 40°10' E 019°20'.

Length 207 m; draft 6.2 m.

Type: Ship. MMSI: 248124000.

Date/timePositionNaut miles runAvg speedWind from/ knotsBaromVisibWave heightAir tempDewpointWater temp
2015-May-23 00:33N 40°10' E 019°20'1211.5
2015-May-22 23:33N 40°04' E 019°32'1111.2
2015-May-22 22:33N 39°57' E 019°44'1212.0
2015-May-22 21:33N 39°50' E 019°56'1111.0
2015-May-22 20:33N 39°39' E 019°58'3 2.8
2015-May-22 19:31N 39°38' E 019°54'0 0.0
2015-May-22 18:31N 39°38' E 019°54'0 0.0
2015-May-22 17:31N 39°38' E 019°54'0 0.0
2015-May-22 16:31N 39°38' E 019°54'0 0.0
2015-May-22 15:28N 39°38' E 019°54'0 0.0
2015-May-22 14:31N 39°38' E 019°54'0 0.0
2015-May-22 13:31N 39°38' E 019°54'0 0.0
2015-May-22 12:31N 39°38' E 019°54'0 0.0
2015-May-22 11:31N 39°38' E 019°54'0 0.0
2015-May-22 10:31N 39°38' E 019°54'0 0.0
2015-May-22 09:31N 39°38' E 019°54'0 0.0
2015-May-22 08:31N 39°38' E 019°54'0 0.0
2015-May-22 07:31N 39°38' E 019°54'0 0.0
2015-May-22 06:31N 39°38' E 019°54'0 0.0
2015-May-22 05:31N 39°38' E 019°54'0 0.0
2015-May-22 04:31N 39°38' E 019°54'0 0.0
2015-May-22 03:32N 39°38' E 019°54'8 8.7
2015-May-22 02:33N 39°32' E 020°03'1616.2
2015-May-22 01:34N 39°19' E 020°14'1615.9
2015-May-22 00:33N 39°04' E 020°21'1616.1
2015-May-21 23:34N 38°48' E 020°26'219 7.8
2015-May-20 19:32N 35°59' E 023°21'4510.9
2015-May-20 15:27N 35°37' E 024°09'8 8.7
2015-May-20 14:30N 35°29' E 024°11'26 2.0
2015-May-20 01:25N 35°55' E 024°09'8111.3
2015-May-19 18:18N 37°14' E 023°50'1111.5
2015-May-19 17:18N 37°25' E 023°47'810.9
2015-May-19 16:33N 37°33' E 023°45'1111.1
2015-May-19 15:33N 37°43' E 023°40'1111.0
2015-May-19 14:33N 37°54' E 023°36'3 3.1
2015-May-19 13:32N 37°56' E 023°38'0 0.0
2015-May-19 12:32N 37°56' E 023°38'0 0.0
2015-May-19 11:32N 37°56' E 023°38'0 0.0
2015-May-19 10:32N 37°56' E 023°38'0 0.0
2015-May-19 09:32N 37°56' E 023°38'0 0.0
2015-May-19 08:32N 37°56' E 023°38'0 0.0
2015-May-19 07:33N 37°56' E 023°38'0 0.0
2015-May-19 06:32N 37°56' E 023°38'0 0.0
2015-May-19 05:33N 37°56' E 023°38'0 0.0
2015-May-19 04:32N 37°56' E 023°38'0 0.0
2015-May-19 03:33N 37°56' E 023°38'3 3.4
2015-May-19 02:33N 37°53' E 023°39'1010.3
2015-May-19 01:33N 37°43' E 023°44'1514.9
2015-May-19 00:33N 37°36' E 023°60'1616.0
2015-May-18 23:33N 37°30' E 024°19'2016.5
2015-May-18 22:20N 37°32' E 024°44'1215.8
2015-May-18 21:33N 37°32' E 024°59'1616.2
2015-May-18 20:33N 37°32' E 025°20'1615.7
2015-May-18 19:33N 37°37' E 025°38'50 2.8
2015-May-18 01:26N 37°54' E 026°38'15 6.5
2015-May-17 23:10N 37°44' E 026°24'710.5
2015-May-17 22:32N 37°38' E 026°23'1110.9
2015-May-17 21:33N 37°31' E 026°13'1110.9
2015-May-17 20:33N 37°28' E 025°59'1111.1
2015-May-17 19:33N 37°26' E 025°46'1110.9
2015-May-17 18:33N 37°22' E 025°33'1110.9
2015-May-17 17:33N 37°21' E 025°19'9 9.0
2015-May-17 16:33N 37°25' E 025°09'8 7.6
2015-May-17 15:32N 37°27' E 025°19'0 0.2
2015-May-17 14:29N 37°27' E 025°19'0 0.0
2015-May-17 13:32N 37°27' E 025°19'0 0.0
2015-May-17 12:32N 37°27' E 025°19'0 0.0
2015-May-17 11:32N 37°27' E 025°19'0 0.0
2015-May-17 10:32N 37°27' E 025°19'0 0.0
2015-May-17 09:32N 37°27' E 025°19'0 0.0
2015-May-17 08:26N 37°27' E 025°19'0 0.0
2015-May-17 07:32N 37°27' E 025°19'0 0.0
2015-May-17 06:32N 37°27' E 025°19'0 0.0
2015-May-17 05:32N 37°27' E 025°19'0 0.0
2015-May-17 04:32N 37°27' E 025°19'0 0.0
2015-May-17 03:33N 37°27' E 025°19'9 9.2
2015-May-17 02:33N 37°25' E 025°08'1515.3
2015-May-17 01:33N 37°15' E 024°54'2316.0
2015-May-17 00:09N 37°02' E 024°30'915.9
2015-May-16 23:33N 36°57' E 024°21'1616.0
2015-May-16 22:33N 36°47' E 024°05'1616.0
2015-May-16 21:33N 36°36' E 023°50'1616.1
2015-May-16 20:33N 36°25' E 023°35'1616.0
2015-May-16 19:33N 36°14' E 023°21'1615.6
2015-May-16 18:32N 36°04' E 023°06'19312.1
2015-May-16 02:33N 38°33' E 020°32'1711.6
2015-May-16 01:08N 38°49' E 020°25'2312.0
2015-May-15 23:11N 39°12' E 020°19'811.9
2015-May-15 22:33N 39°18' E 020°15'1211.6
2015-May-15 21:33N 39°28' E 020°07'1211.6
2015-May-15 20:33N 39°37' E 019°58'3 2.7
2015-May-15 19:33N 39°38' E 019°54'0 0.0
2015-May-15 18:33N 39°38' E 019°54'0 0.0
2015-May-15 17:33N 39°38' E 019°54'0 0.0
2015-May-15 16:33N 39°38' E 019°54'0 0.0
2015-May-15 15:33N 39°38' E 019°54'0 0.0
2015-May-15 14:34N 39°38' E 019°54'0 0.0
2015-May-15 13:33N 39°38' E 019°54'0 0.0
2015-May-15 12:30N 39°38' E 019°54'0 0.0
2015-May-15 11:33N 39°38' E 019°54'0 0.0
2015-May-15 10:30N 39°38' E 019°54'0 0.0
2015-May-15 09:33N 39°38' E 019°54'0 0.0
2015-May-15 08:33N 39°38' E 019°54'0 0.0
2015-May-15 07:33N 39°38' E 019°54'0 0.0
2015-May-15 06:33N 39°38' E 019°54'0 0.0
2015-May-15 05:33N 39°38' E 019°54'0 0.0
2015-May-15 04:33N 39°38' E 019°54'0 0.1
2015-May-15 03:33N 39°38' E 019°54'1211.7
2015-May-15 02:34N 39°49' E 019°59'1616.1
2015-May-15 01:34N 39°58' E 019°42'1716.5
2015-May-15 00:34N 40°08' E 019°24'1616.3
2015-May-14 23:34N 40°20' E 019°10'8516.5
2015-May-14 18:26N 41°43' E 018°44'1517.0
2015-May-14 17:34N 41°57' E 018°40'1717.0
2015-May-14 16:34N 42°14' E 018°35'1212.4
2015-May-14 15:33N 42°26' E 018°35'7 7.0
2015-May-14 14:33N 42°28' E 018°44'26 2.0
2015-May-14 01:26N 42°13' E 018°16'1011.2
2015-May-14 00:34N 42°06' E 018°06'1111.1
2015-May-13 23:33N 41°60' E 017°54'1211.2
2015-May-13 22:31N 42°02' E 017°38'1211.0
2015-May-13 21:25N 42°05' E 017°23'8 8.3
2015-May-13 20:27N 42°13' E 017°18'1010.6
2015-May-13 19:33N 42°22' E 017°22'1010.4
2015-May-13 18:33N 42°28' E 017°33'1111.4
2015-May-13 17:33N 42°33' E 017°47'1211.6
2015-May-13 16:31N 42°39' E 018°01'5 0.4
2015-May-13 04:33N 42°38' E 017°54'1211.7
2015-May-13 03:33N 42°41' E 017°39'  
Track history (hours):
 
Tides and Currents Weather Stations Pressure Air Temp Water Temp Dewpoint Dewpoint Depression Visibility Wind Speed Wind Dir Waves Ship Positions

Thomson Majesty

Last reported at 2015-May-23 00:33 UTC. Time now 2015-May-24 21:05 UTC.
Position N 40°10' E 019°20'.

Length 207 m; draft 6.2 m.

Type: Ship. MMSI: 248124000.

Date/timePositionNaut miles runAvg speedWind from/ knotsBaromVisibWave heightAir tempDewpointWater temp
2015-May-23 00:33N 40°10' E 019°20'1211.5
2015-May-22 23:33N 40°04' E 019°32'1111.2
2015-May-22 22:33N 39°57' E 019°44'1212.0
2015-May-22 21:33N 39°50' E 019°56'1111.0
2015-May-22 20:33N 39°39' E 019°58'3 2.8
2015-May-22 19:31N 39°38' E 019°54'0 0.0
2015-May-22 18:31N 39°38' E 019°54'0 0.0
2015-May-22 17:31N 39°38' E 019°54'0 0.0
2015-May-22 16:31N 39°38' E 019°54'0 0.0
2015-May-22 15:28N 39°38' E 019°54'0 0.0
2015-May-22 14:31N 39°38' E 019°54'0 0.0
2015-May-22 13:31N 39°38' E 019°54'0 0.0
2015-May-22 12:31N 39°38' E 019°54'0 0.0
2015-May-22 11:31N 39°38' E 019°54'0 0.0
2015-May-22 10:31N 39°38' E 019°54'0 0.0
2015-May-22 09:31N 39°38' E 019°54'0 0.0
2015-May-22 08:31N 39°38' E 019°54'0 0.0
2015-May-22 07:31N 39°38' E 019°54'0 0.0
2015-May-22 06:31N 39°38' E 019°54'0 0.0
2015-May-22 05:31N 39°38' E 019°54'0 0.0
2015-May-22 04:31N 39°38' E 019°54'0 0.0
2015-May-22 03:32N 39°38' E 019°54'8 8.7
2015-May-22 02:33N 39°32' E 020°03'1616.2
2015-May-22 01:34N 39°19' E 020°14'1615.9
2015-May-22 00:33N 39°04' E 020°21'1616.1
2015-May-21 23:34N 38°48' E 020°26'219 7.8
2015-May-20 19:32N 35°59' E 023°21'4510.9
2015-May-20 15:27N 35°37' E 024°09'8 8.7
2015-May-20 14:30N 35°29' E 024°11'26 2.0
2015-May-20 01:25N 35°55' E 024°09'8111.3
2015-May-19 18:18N 37°14' E 023°50'1111.5
2015-May-19 17:18N 37°25' E 023°47'810.9
2015-May-19 16:33N 37°33' E 023°45'1111.1
2015-May-19 15:33N 37°43' E 023°40'1111.0
2015-May-19 14:33N 37°54' E 023°36'3 3.1
2015-May-19 13:32N 37°56' E 023°38'0 0.0
2015-May-19 12:32N 37°56' E 023°38'0 0.0
2015-May-19 11:32N 37°56' E 023°38'0 0.0
2015-May-19 10:32N 37°56' E 023°38'0 0.0
2015-May-19 09:32N 37°56' E 023°38'0 0.0
2015-May-19 08:32N 37°56' E 023°38'0 0.0
2015-May-19 07:33N 37°56' E 023°38'0 0.0
2015-May-19 06:32N 37°56' E 023°38'0 0.0
2015-May-19 05:33N 37°56' E 023°38'0 0.0
2015-May-19 04:32N 37°56' E 023°38'0 0.0
2015-May-19 03:33N 37°56' E 023°38'3 3.4
2015-May-19 02:33N 37°53' E 023°39'1010.3
2015-May-19 01:33N 37°43' E 023°44'1514.9
2015-May-19 00:33N 37°36' E 023°60'1616.0
2015-May-18 23:33N 37°30' E 024°19'2016.5
2015-May-18 22:20N 37°32' E 024°44'1215.8
2015-May-18 21:33N 37°32' E 024°59'1616.2
2015-May-18 20:33N 37°32' E 025°20'1615.7
2015-May-18 19:33N 37°37' E 025°38'50 2.8
2015-May-18 01:26N 37°54' E 026°38'15 6.5
2015-May-17 23:10N 37°44' E 026°24'710.5
2015-May-17 22:32N 37°38' E 026°23'1110.9
2015-May-17 21:33N 37°31' E 026°13'1110.9
2015-May-17 20:33N 37°28' E 025°59'1111.1
2015-May-17 19:33N 37°26' E 025°46'1110.9
2015-May-17 18:33N 37°22' E 025°33'1110.9
2015-May-17 17:33N 37°21' E 025°19'9 9.0
2015-May-17 16:33N 37°25' E 025°09'8 7.6
2015-May-17 15:32N 37°27' E 025°19'0 0.2
2015-May-17 14:29N 37°27' E 025°19'0 0.0
2015-May-17 13:32N 37°27' E 025°19'0 0.0
2015-May-17 12:32N 37°27' E 025°19'0 0.0
2015-May-17 11:32N 37°27' E 025°19'0 0.0
2015-May-17 10:32N 37°27' E 025°19'0 0.0
2015-May-17 09:32N 37°27' E 025°19'0 0.0
2015-May-17 08:26N 37°27' E 025°19'0 0.0
2015-May-17 07:32N 37°27' E 025°19'0 0.0
2015-May-17 06:32N 37°27' E 025°19'0 0.0
2015-May-17 05:32N 37°27' E 025°19'0 0.0
2015-May-17 04:32N 37°27' E 025°19'0 0.0
2015-May-17 03:33N 37°27' E 025°19'9 9.2
2015-May-17 02:33N 37°25' E 025°08'1515.3
2015-May-17 01:33N 37°15' E 024°54'2316.0
2015-May-17 00:09N 37°02' E 024°30'915.9
2015-May-16 23:33N 36°57' E 024°21'1616.0
2015-May-16 22:33N 36°47' E 024°05'1616.0
2015-May-16 21:33N 36°36' E 023°50'1616.1
2015-May-16 20:33N 36°25' E 023°35'1616.0
2015-May-16 19:33N 36°14' E 023°21'1615.6
2015-May-16 18:32N 36°04' E 023°06'19312.1
2015-May-16 02:33N 38°33' E 020°32'1711.6
2015-May-16 01:08N 38°49' E 020°25'2312.0
2015-May-15 23:11N 39°12' E 020°19'811.9
2015-May-15 22:33N 39°18' E 020°15'1211.6
2015-May-15 21:33N 39°28' E 020°07'1211.6
2015-May-15 20:33N 39°37' E 019°58'3 2.7
2015-May-15 19:33N 39°38' E 019°54'0 0.0
2015-May-15 18:33N 39°38' E 019°54'0 0.0
2015-May-15 17:33N 39°38' E 019°54'0 0.0
2015-May-15 16:33N 39°38' E 019°54'0 0.0
2015-May-15 15:33N 39°38' E 019°54'0 0.0
2015-May-15 14:34N 39°38' E 019°54'0 0.0
2015-May-15 13:33N 39°38' E 019°54'0 0.0
2015-May-15 12:30N 39°38' E 019°54'0 0.0
2015-May-15 11:33N 39°38' E 019°54'0 0.0
2015-May-15 10:30N 39°38' E 019°54'0 0.0
2015-May-15 09:33N 39°38' E 019°54'0 0.0
2015-May-15 08:33N 39°38' E 019°54'0 0.0
2015-May-15 07:33N 39°38' E 019°54'0 0.0
2015-May-15 06:33N 39°38' E 019°54'0 0.0
2015-May-15 05:33N 39°38' E 019°54'0 0.0
2015-May-15 04:33N 39°38' E 019°54'0 0.1
2015-May-15 03:33N 39°38' E 019°54'1211.7
2015-May-15 02:34N 39°49' E 019°59'1616.1
2015-May-15 01:34N 39°58' E 019°42'1716.5
2015-May-15 00:34N 40°08' E 019°24'1616.3
2015-May-14 23:34N 40°20' E 019°10'8516.5
2015-May-14 18:26N 41°43' E 018°44'1517.0
2015-May-14 17:34N 41°57' E 018°40'1717.0
2015-May-14 16:34N 42°14' E 018°35'1212.4
2015-May-14 15:33N 42°26' E 018°35'7 7.0
2015-May-14 14:33N 42°28' E 018°44'26 2.0
2015-May-14 01:26N 42°13' E 018°16'1011.2
2015-May-14 00:34N 42°06' E 018°06'1111.1
2015-May-13 23:33N 41°60' E 017°54'1211.2
2015-May-13 22:31N 42°02' E 017°38'1211.0
2015-May-13 21:25N 42°05' E 017°23'8 8.3
2015-May-13 20:27N 42°13' E 017°18'1010.6
2015-May-13 19:33N 42°22' E 017°22'1010.4
2015-May-13 18:33N 42°28' E 017°33'1111.4
2015-May-13 17:33N 42°33' E 017°47'1211.6
2015-May-13 16:31N 42°39' E 018°01'5 0.4
2015-May-13 04:33N 42°38' E 017°54'1211.7
2015-May-13 03:33N 42°41' E 017°39'  

Dump ship's entire track history